sensor_id;sensor_type;location;lat;lon;timestamp;P1;durP1;ratioP1;P2;durP2;ratioP2
33824;SDS011;20127;48.962;8.342;2022-09-01T00:01:16;9.48;;;7.43;;
33824;SDS011;20127;48.962;8.342;2022-09-01T00:04:22;11.77;;;7.13;;
33824;SDS011;20127;48.962;8.342;2022-09-01T00:07:27;9.18;;;6.75;;
33824;SDS011;20127;48.962;8.342;2022-09-01T00:10:30;11.15;;;6.78;;
33824;SDS011;20127;48.962;8.342;2022-09-01T00:13:32;8.80;;;6.20;;
33824;SDS011;20127;48.962;8.342;2022-09-01T00:16:34;8.90;;;5.88;;
33824;SDS011;20127;48.962;8.342;2022-09-01T00:19:37;7.38;;;5.95;;
33824;SDS011;20127;48.962;8.342;2022-09-01T00:22:40;13.30;;;7.05;;
33824;SDS011;20127;48.962;8.342;2022-09-01T00:25:41;10.15;;;5.90;;
33824;SDS011;20127;48.962;8.342;2022-09-01T00:28:43;11.20;;;6.85;;
33824;SDS011;20127;48.962;8.342;2022-09-01T00:31:45;9.85;;;6.00;;
33824;SDS011;20127;48.962;8.342;2022-09-01T00:34:48;16.35;;;6.20;;
33824;SDS011;20127;48.962;8.342;2022-09-01T00:37:50;7.75;;;5.65;;
33824;SDS011;20127;48.962;8.342;2022-09-01T00:40:52;13.63;;;5.70;;
33824;SDS011;20127;48.962;8.342;2022-09-01T00:43:54;7.35;;;5.97;;
33824;SDS011;20127;48.962;8.342;2022-09-01T00:46:58;11.30;;;5.13;;
33824;SDS011;20127;48.962;8.342;2022-09-01T00:50:02;7.60;;;4.63;;
33824;SDS011;20127;48.962;8.342;2022-09-01T00:53:05;7.97;;;4.95;;
33824;SDS011;20127;48.962;8.342;2022-09-01T00:56:08;5.05;;;3.85;;
33824;SDS011;20127;48.962;8.342;2022-09-01T00:59:10;9.85;;;4.53;;
33824;SDS011;20127;48.962;8.342;2022-09-01T01:13:45;10.10;;;4.75;;
33824;SDS011;20127;48.962;8.342;2022-09-01T01:16:50;7.55;;;4.72;;
33824;SDS011;20127;48.962;8.342;2022-09-01T01:19:54;11.50;;;5.40;;
33824;SDS011;20127;48.962;8.342;2022-09-01T01:23:18;7.28;;;4.22;;
33824;SDS011;20127;48.962;8.342;2022-09-01T01:26:26;5.43;;;4.38;;
33824;SDS011;20127;48.962;8.342;2022-09-01T01:29:30;13.02;;;4.95;;
33824;SDS011;20127;48.962;8.342;2022-09-01T01:32:32;6.50;;;5.28;;
33824;SDS011;20127;48.962;8.342;2022-09-01T01:35:35;8.43;;;4.25;;
33824;SDS011;20127;48.962;8.342;2022-09-01T01:38:37;10.05;;;5.35;;
33824;SDS011;20127;48.962;8.342;2022-09-01T01:41:43;6.25;;;4.68;;
33824;SDS011;20127;48.962;8.342;2022-09-01T01:44:47;9.75;;;5.10;;
33824;SDS011;20127;48.962;8.342;2022-09-01T01:47:50;12.45;;;4.57;;
33824;SDS011;20127;48.962;8.342;2022-09-01T01:50:53;8.48;;;4.72;;
33824;SDS011;20127;48.962;8.342;2022-09-01T01:53:57;9.07;;;5.50;;
33824;SDS011;20127;48.962;8.342;2022-09-01T01:57:05;11.90;;;4.80;;
33824;SDS011;20127;48.962;8.342;2022-09-01T02:00:08;6.47;;;4.82;;
33824;SDS011;20127;48.962;8.342;2022-09-01T02:03:12;6.22;;;4.70;;
33824;SDS011;20127;48.962;8.342;2022-09-01T02:06:16;7.43;;;5.55;;
33824;SDS011;20127;48.962;8.342;2022-09-01T02:09:23;6.20;;;4.97;;
33824;SDS011;20127;48.962;8.342;2022-09-01T02:12:26;15.40;;;4.78;;
33824;SDS011;20127;48.962;8.342;2022-09-01T02:15:28;7.57;;;4.53;;
33824;SDS011;20127;48.962;8.342;2022-09-01T02:18:33;9.45;;;4.80;;
33824;SDS011;20127;48.962;8.342;2022-09-01T02:21:36;12.27;;;5.20;;
33824;SDS011;20127;48.962;8.342;2022-09-01T02:24:43;6.00;;;4.65;;
33824;SDS011;20127;48.962;8.342;2022-09-01T02:27:49;7.50;;;4.60;;
33824;SDS011;20127;48.962;8.342;2022-09-01T02:30:52;8.20;;;5.43;;
33824;SDS011;20127;48.962;8.342;2022-09-01T02:33:56;10.68;;;5.97;;
33824;SDS011;20127;48.962;8.342;2022-09-01T02:36:58;6.60;;;5.57;;
33824;SDS011;20127;48.962;8.342;2022-09-01T02:40:00;7.88;;;5.40;;
33824;SDS011;20127;48.962;8.342;2022-09-01T02:43:03;8.05;;;5.53;;
33824;SDS011;20127;48.962;8.342;2022-09-01T02:46:05;6.05;;;5.45;;
33824;SDS011;20127;48.962;8.342;2022-09-01T02:49:07;10.32;;;5.88;;
33824;SDS011;20127;48.962;8.342;2022-09-01T02:52:14;8.70;;;5.20;;
33824;SDS011;20127;48.962;8.342;2022-09-01T02:55:16;5.50;;;4.85;;
33824;SDS011;20127;48.962;8.342;2022-09-01T02:58:22;11.25;;;5.55;;
33824;SDS011;20127;48.962;8.342;2022-09-01T03:01:24;7.35;;;4.78;;
33824;SDS011;20127;48.962;8.342;2022-09-01T03:04:28;7.75;;;5.55;;
33824;SDS011;20127;48.962;8.342;2022-09-01T03:07:33;7.65;;;5.25;;
33824;SDS011;20127;48.962;8.342;2022-09-01T03:10:36;9.57;;;6.35;;
33824;SDS011;20127;48.962;8.342;2022-09-01T03:13:42;6.68;;;5.35;;
33824;SDS011;20127;48.962;8.342;2022-09-01T03:16:44;6.90;;;5.65;;
33824;SDS011;20127;48.962;8.342;2022-09-01T03:19:46;12.88;;;6.00;;
33824;SDS011;20127;48.962;8.342;2022-09-01T03:22:49;10.40;;;6.28;;
33824;SDS011;20127;48.962;8.342;2022-09-01T03:25:51;6.03;;;5.07;;
33824;SDS011;20127;48.962;8.342;2022-09-01T03:28:55;12.63;;;6.63;;
33824;SDS011;20127;48.962;8.342;2022-09-01T03:31:58;7.90;;;6.13;;
33824;SDS011;20127;48.962;8.342;2022-09-01T03:35:00;8.18;;;5.95;;
33824;SDS011;20127;48.962;8.342;2022-09-01T03:38:02;10.13;;;6.03;;
33824;SDS011;20127;48.962;8.342;2022-09-01T03:41:04;15.38;;;6.43;;
33824;SDS011;20127;48.962;8.342;2022-09-01T03:44:07;8.25;;;5.70;;
33824;SDS011;20127;48.962;8.342;2022-09-01T03:47:11;8.52;;;6.25;;
33824;SDS011;20127;48.962;8.342;2022-09-01T03:50:16;7.47;;;6.10;;
33824;SDS011;20127;48.962;8.342;2022-09-01T03:53:21;11.00;;;6.45;;
33824;SDS011;20127;48.962;8.342;2022-09-01T03:56:26;8.23;;;6.35;;
33824;SDS011;20127;48.962;8.342;2022-09-01T03:59:30;9.15;;;7.20;;
33824;SDS011;20127;48.962;8.342;2022-09-01T04:02:33;10.48;;;6.43;;
33824;SDS011;20127;48.962;8.342;2022-09-01T04:05:35;12.13;;;7.70;;
33824;SDS011;20127;48.962;8.342;2022-09-01T04:08:37;10.05;;;7.05;;
33824;SDS011;20127;48.962;8.342;2022-09-01T04:11:39;11.60;;;7.80;;
33824;SDS011;20127;48.962;8.342;2022-09-01T04:14:46;14.40;;;7.88;;
33824;SDS011;20127;48.962;8.342;2022-09-01T04:17:48;19.55;;;9.82;;
33824;SDS011;20127;48.962;8.342;2022-09-01T04:21:07;12.32;;;8.52;;
33824;SDS011;20127;48.962;8.342;2022-09-01T04:24:09;11.20;;;8.45;;
33824;SDS011;20127;48.962;8.342;2022-09-01T04:27:14;17.70;;;10.40;;
33824;SDS011;20127;48.962;8.342;2022-09-01T04:30:18;15.48;;;9.75;;
33824;SDS011;20127;48.962;8.342;2022-09-01T04:33:25;24.52;;;12.00;;
33824;SDS011;20127;48.962;8.342;2022-09-01T04:36:35;15.68;;;9.20;;
33824;SDS011;20127;48.962;8.342;2022-09-01T04:39:40;14.68;;;10.13;;
33824;SDS011;20127;48.962;8.342;2022-09-01T04:42:47;16.80;;;10.32;;
33824;SDS011;20127;48.962;8.342;2022-09-01T04:45:51;14.30;;;9.52;;
33824;SDS011;20127;48.962;8.342;2022-09-01T04:48:55;18.00;;;10.02;;
33824;SDS011;20127;48.962;8.342;2022-09-01T04:51:57;13.95;;;9.25;;
33824;SDS011;20127;48.962;8.342;2022-09-01T04:54:59;11.43;;;8.32;;
33824;SDS011;20127;48.962;8.342;2022-09-01T04:58:02;13.55;;;9.02;;
33824;SDS011;20127;48.962;8.342;2022-09-01T05:01:13;15.20;;;8.55;;
33824;SDS011;20127;48.962;8.342;2022-09-01T05:04:17;13.35;;;9.32;;
33824;SDS011;20127;48.962;8.342;2022-09-01T05:07:21;13.85;;;8.98;;
33824;SDS011;20127;48.962;8.342;2022-09-01T05:10:23;12.88;;;8.35;;
33824;SDS011;20127;48.962;8.342;2022-09-01T05:13:28;11.30;;;8.25;;
33824;SDS011;20127;48.962;8.342;2022-09-01T05:16:33;11.15;;;8.73;;
33824;SDS011;20127;48.962;8.342;2022-09-01T05:22:43;14.23;;;8.45;;
33824;SDS011;20127;48.962;8.342;2022-09-01T05:25:45;15.85;;;9.80;;
33824;SDS011;20127;48.962;8.342;2022-09-01T05:28:50;16.05;;;9.63;;
33824;SDS011;20127;48.962;8.342;2022-09-01T05:31:55;12.38;;;8.95;;
33824;SDS011;20127;48.962;8.342;2022-09-01T05:34:57;11.80;;;8.00;;
33824;SDS011;20127;48.962;8.342;2022-09-01T05:38:01;11.02;;;8.65;;
33824;SDS011;20127;48.962;8.342;2022-09-01T05:41:03;14.45;;;9.20;;
33824;SDS011;20127;48.962;8.342;2022-09-01T05:44:08;12.43;;;9.18;;
33824;SDS011;20127;48.962;8.342;2022-09-01T05:47:12;13.43;;;10.10;;
33824;SDS011;20127;48.962;8.342;2022-09-01T05:50:15;13.98;;;9.40;;
33824;SDS011;20127;48.962;8.342;2022-09-01T05:53:18;14.80;;;9.75;;
33824;SDS011;20127;48.962;8.342;2022-09-01T05:56:24;13.30;;;9.20;;
33824;SDS011;20127;48.962;8.342;2022-09-01T05:59:27;13.60;;;9.55;;
33824;SDS011;20127;48.962;8.342;2022-09-01T06:02:31;15.07;;;10.70;;
33824;SDS011;20127;48.962;8.342;2022-09-01T06:05:33;13.98;;;9.82;;
33824;SDS011;20127;48.962;8.342;2022-09-01T06:08:36;16.42;;;9.00;;
33824;SDS011;20127;48.962;8.342;2022-09-01T06:11:39;13.93;;;9.20;;
33824;SDS011;20127;48.962;8.342;2022-09-01T06:14:41;12.60;;;8.77;;
33824;SDS011;20127;48.962;8.342;2022-09-01T06:17:44;11.23;;;8.65;;
33824;SDS011;20127;48.962;8.342;2022-09-01T06:20:46;12.73;;;8.68;;
33824;SDS011;20127;48.962;8.342;2022-09-01T06:23:49;9.45;;;7.53;;
33824;SDS011;20127;48.962;8.342;2022-09-01T06:26:53;10.73;;;8.00;;
33824;SDS011;20127;48.962;8.342;2022-09-01T06:29:54;19.15;;;8.43;;
33824;SDS011;20127;48.962;8.342;2022-09-01T06:32:58;13.70;;;7.95;;
33824;SDS011;20127;48.962;8.342;2022-09-01T06:36:01;9.48;;;7.00;;
33824;SDS011;20127;48.962;8.342;2022-09-01T06:39:04;11.45;;;7.05;;
33824;SDS011;20127;48.962;8.342;2022-09-01T06:42:06;10.95;;;6.45;;
33824;SDS011;20127;48.962;8.342;2022-09-01T06:45:08;9.25;;;6.18;;
33824;SDS011;20127;48.962;8.342;2022-09-01T06:48:13;7.45;;;6.07;;
33824;SDS011;20127;48.962;8.342;2022-09-01T06:51:15;7.70;;;5.78;;
33824;SDS011;20127;48.962;8.342;2022-09-01T06:54:19;8.25;;;6.05;;
33824;SDS011;20127;48.962;8.342;2022-09-01T06:57:22;9.98;;;5.97;;
33824;SDS011;20127;48.962;8.342;2022-09-01T07:00:25;11.43;;;6.22;;
33824;SDS011;20127;48.962;8.342;2022-09-01T07:03:29;11.55;;;7.03;;
33824;SDS011;20127;48.962;8.342;2022-09-01T07:06:32;8.27;;;6.20;;
33824;SDS011;20127;48.962;8.342;2022-09-01T07:09:34;8.50;;;4.97;;
33824;SDS011;20127;48.962;8.342;2022-09-01T07:12:36;8.48;;;5.28;;
33824;SDS011;20127;48.962;8.342;2022-09-01T07:15:38;7.90;;;5.32;;
33824;SDS011;20127;48.962;8.342;2022-09-01T07:18:42;7.18;;;4.68;;
33824;SDS011;20127;48.962;8.342;2022-09-01T07:21:44;7.50;;;5.38;;
33824;SDS011;20127;48.962;8.342;2022-09-01T07:24:45;9.13;;;5.53;;
33824;SDS011;20127;48.962;8.342;2022-09-01T07:27:47;8.35;;;4.38;;
33824;SDS011;20127;48.962;8.342;2022-09-01T07:30:50;7.93;;;5.07;;
33824;SDS011;20127;48.962;8.342;2022-09-01T07:33:54;7.13;;;5.30;;
33824;SDS011;20127;48.962;8.342;2022-09-01T07:36:59;6.70;;;3.58;;
33824;SDS011;20127;48.962;8.342;2022-09-01T07:40:01;5.18;;;3.90;;
33824;SDS011;20127;48.962;8.342;2022-09-01T07:43:05;8.05;;;4.97;;
33824;SDS011;20127;48.962;8.342;2022-09-01T07:46:08;8.32;;;3.53;;
33824;SDS011;20127;48.962;8.342;2022-09-01T07:49:12;6.53;;;3.90;;
33824;SDS011;20127;48.962;8.342;2022-09-01T07:52:14;5.18;;;4.00;;
33824;SDS011;20127;48.962;8.342;2022-09-01T07:55:17;5.07;;;3.95;;
33824;SDS011;20127;48.962;8.342;2022-09-01T07:58:19;7.68;;;4.30;;
33824;SDS011;20127;48.962;8.342;2022-09-01T08:01:23;10.05;;;4.25;;
33824;SDS011;20127;48.962;8.342;2022-09-01T08:04:28;5.38;;;4.25;;
33824;SDS011;20127;48.962;8.342;2022-09-01T08:07:30;5.90;;;4.13;;
33824;SDS011;20127;48.962;8.342;2022-09-01T08:10:33;6.72;;;3.85;;
33824;SDS011;20127;48.962;8.342;2022-09-01T08:13:38;7.97;;;4.57;;
33824;SDS011;20127;48.962;8.342;2022-09-01T08:16:39;6.72;;;3.80;;
33824;SDS011;20127;48.962;8.342;2022-09-01T08:19:43;4.93;;;3.70;;
33824;SDS011;20127;48.962;8.342;2022-09-01T08:22:46;6.68;;;3.80;;
33824;SDS011;20127;48.962;8.342;2022-09-01T08:25:48;5.53;;;4.05;;
33824;SDS011;20127;48.962;8.342;2022-09-01T08:28:49;7.00;;;3.95;;
33824;SDS011;20127;48.962;8.342;2022-09-01T08:31:52;5.85;;;3.83;;
33824;SDS011;20127;48.962;8.342;2022-09-01T08:34:55;3.97;;;2.90;;
33824;SDS011;20127;48.962;8.342;2022-09-01T08:37:57;6.97;;;3.40;;
33824;SDS011;20127;48.962;8.342;2022-09-01T08:40:59;5.13;;;3.30;;
33824;SDS011;20127;48.962;8.342;2022-09-01T08:44:05;7.57;;;3.42;;
33824;SDS011;20127;48.962;8.342;2022-09-01T08:47:16;5.82;;;3.97;;
33824;SDS011;20127;48.962;8.342;2022-09-01T08:50:21;7.28;;;3.63;;
33824;SDS011;20127;48.962;8.342;2022-09-01T08:53:25;7.38;;;4.40;;
33824;SDS011;20127;48.962;8.342;2022-09-01T08:56:29;4.65;;;3.65;;
33824;SDS011;20127;48.962;8.342;2022-09-01T08:59:31;4.97;;;3.50;;
33824;SDS011;20127;48.962;8.342;2022-09-01T09:02:38;7.85;;;4.00;;
33824;SDS011;20127;48.962;8.342;2022-09-01T09:05:56;5.95;;;4.10;;
33824;SDS011;20127;48.962;8.342;2022-09-01T09:09:06;5.22;;;4.05;;
33824;SDS011;20127;48.962;8.342;2022-09-01T09:15:41;5.25;;;2.75;;
33824;SDS011;20127;48.962;8.342;2022-09-01T09:18:48;6.18;;;4.25;;
33824;SDS011;20127;48.962;8.342;2022-09-01T09:21:55;4.43;;;3.40;;
33824;SDS011;20127;48.962;8.342;2022-09-01T09:25:03;3.83;;;2.63;;
33824;SDS011;20127;48.962;8.342;2022-09-01T09:28:09;4.05;;;2.78;;
33824;SDS011;20127;48.962;8.342;2022-09-01T09:31:24;3.88;;;2.60;;
33824;SDS011;20127;48.962;8.342;2022-09-01T09:34:30;3.35;;;2.65;;
33824;SDS011;20127;48.962;8.342;2022-09-01T09:37:35;7.13;;;2.47;;
33824;SDS011;20127;48.962;8.342;2022-09-01T09:40:37;4.43;;;2.70;;
33824;SDS011;20127;48.962;8.342;2022-09-01T09:43:41;4.13;;;2.47;;
33824;SDS011;20127;48.962;8.342;2022-09-01T09:46:45;5.40;;;3.13;;
33824;SDS011;20127;48.962;8.342;2022-09-01T09:49:47;4.85;;;2.40;;
33824;SDS011;20127;48.962;8.342;2022-09-01T09:53:12;3.30;;;2.50;;
33824;SDS011;20127;48.962;8.342;2022-09-01T09:56:19;2.88;;;2.15;;
33824;SDS011;20127;48.962;8.342;2022-09-01T09:59:26;3.05;;;1.77;;
33824;SDS011;20127;48.962;8.342;2022-09-01T10:02:30;3.03;;;1.60;;
33824;SDS011;20127;48.962;8.342;2022-09-01T10:05:38;1.92;;;1.30;;
33824;SDS011;20127;48.962;8.342;2022-09-01T10:08:43;3.30;;;1.90;;
33824;SDS011;20127;48.962;8.342;2022-09-01T10:11:48;2.08;;;1.50;;
33824;SDS011;20127;48.962;8.342;2022-09-01T10:14:53;2.65;;;1.88;;
33824;SDS011;20127;48.962;8.342;2022-09-01T10:17:59;3.95;;;2.13;;
33824;SDS011;20127;48.962;8.342;2022-09-01T10:21:07;3.22;;;1.50;;
33824;SDS011;20127;48.962;8.342;2022-09-01T10:24:15;2.15;;;1.27;;
33824;SDS011;20127;48.962;8.342;2022-09-01T10:27:20;2.80;;;2.03;;
33824;SDS011;20127;48.962;8.342;2022-09-01T10:30:24;6.32;;;1.30;;
33824;SDS011;20127;48.962;8.342;2022-09-01T10:33:27;1.52;;;1.10;;
33824;SDS011;20127;48.962;8.342;2022-09-01T10:36:28;3.35;;;1.23;;
33824;SDS011;20127;48.962;8.342;2022-09-01T10:39:33;2.08;;;1.35;;
33824;SDS011;20127;48.962;8.342;2022-09-01T10:42:55;2.97;;;1.23;;
33824;SDS011;20127;48.962;8.342;2022-09-01T10:45:59;4.25;;;1.83;;
33824;SDS011;20127;48.962;8.342;2022-09-01T10:49:01;3.42;;;1.88;;
33824;SDS011;20127;48.962;8.342;2022-09-01T10:56:00;3.63;;;2.03;;
33824;SDS011;20127;48.962;8.342;2022-09-01T10:59:06;1.70;;;1.25;;
33824;SDS011;20127;48.962;8.342;2022-09-01T11:02:11;2.45;;;1.65;;
33824;SDS011;20127;48.962;8.342;2022-09-01T11:05:16;2.53;;;1.80;;
33824;SDS011;20127;48.962;8.342;2022-09-01T11:08:21;2.90;;;1.80;;
33824;SDS011;20127;48.962;8.342;2022-09-01T11:11:28;2.22;;;1.35;;
33824;SDS011;20127;48.962;8.342;2022-09-01T11:14:33;4.30;;;1.85;;
33824;SDS011;20127;48.962;8.342;2022-09-01T11:17:53;4.75;;;1.98;;
33824;SDS011;20127;48.962;8.342;2022-09-01T11:21:12;1.85;;;1.70;;
33824;SDS011;20127;48.962;8.342;2022-09-01T11:28:07;6.80;;;1.77;;
33824;SDS011;20127;48.962;8.342;2022-09-01T11:31:30;3.00;;;2.35;;
33824;SDS011;20127;48.962;8.342;2022-09-01T11:34:40;2.80;;;1.70;;
33824;SDS011;20127;48.962;8.342;2022-09-01T11:37:46;5.00;;;1.85;;
33824;SDS011;20127;48.962;8.342;2022-09-01T11:40:53;2.60;;;1.83;;
33824;SDS011;20127;48.962;8.342;2022-09-01T11:43:58;5.40;;;2.92;;
33824;SDS011;20127;48.962;8.342;2022-09-01T11:47:03;2.33;;;1.67;;
33824;SDS011;20127;48.962;8.342;2022-09-01T11:50:08;5.03;;;2.10;;
33824;SDS011;20127;48.962;8.342;2022-09-01T11:53:20;4.72;;;2.35;;
33824;SDS011;20127;48.962;8.342;2022-09-01T11:56:24;3.80;;;1.60;;
33824;SDS011;20127;48.962;8.342;2022-09-01T11:59:33;2.10;;;1.48;;
33824;SDS011;20127;48.962;8.342;2022-09-01T12:02:41;3.65;;;1.42;;
33824;SDS011;20127;48.962;8.342;2022-09-01T12:05:45;3.25;;;1.92;;
33824;SDS011;20127;48.962;8.342;2022-09-01T12:08:54;2.03;;;1.58;;
33824;SDS011;20127;48.962;8.342;2022-09-01T12:11:57;3.22;;;1.70;;
33824;SDS011;20127;48.962;8.342;2022-09-01T12:15:02;1.90;;;1.58;;
33824;SDS011;20127;48.962;8.342;2022-09-01T12:18:11;2.72;;;1.45;;
33824;SDS011;20127;48.962;8.342;2022-09-01T12:21:16;2.40;;;1.60;;
33824;SDS011;20127;48.962;8.342;2022-09-01T12:24:22;2.65;;;1.52;;
33824;SDS011;20127;48.962;8.342;2022-09-01T12:27:24;2.88;;;1.52;;
33824;SDS011;20127;48.962;8.342;2022-09-01T12:30:27;3.47;;;1.50;;
33824;SDS011;20127;48.962;8.342;2022-09-01T12:33:34;6.03;;;1.92;;
33824;SDS011;20127;48.962;8.342;2022-09-01T12:36:36;2.47;;;1.83;;
33824;SDS011;20127;48.962;8.342;2022-09-01T12:39:38;2.38;;;1.55;;
33824;SDS011;20127;48.962;8.342;2022-09-01T12:42:47;3.33;;;1.40;;
33824;SDS011;20127;48.962;8.342;2022-09-01T12:45:52;2.45;;;1.55;;
33824;SDS011;20127;48.962;8.342;2022-09-01T12:48:54;2.90;;;1.70;;
33824;SDS011;20127;48.962;8.342;2022-09-01T12:52:19;3.03;;;1.30;;
33824;SDS011;20127;48.962;8.342;2022-09-01T12:55:25;2.83;;;1.50;;
33824;SDS011;20127;48.962;8.342;2022-09-01T12:58:28;2.35;;;1.30;;
33824;SDS011;20127;48.962;8.342;2022-09-01T13:01:34;1.65;;;1.23;;
33824;SDS011;20127;48.962;8.342;2022-09-01T13:04:39;1.75;;;1.10;;
33824;SDS011;20127;48.962;8.342;2022-09-01T13:07:41;3.60;;;1.35;;
33824;SDS011;20127;48.962;8.342;2022-09-01T13:10:44;2.13;;;1.52;;
33824;SDS011;20127;48.962;8.342;2022-09-01T13:13:47;1.88;;;1.40;;
33824;SDS011;20127;48.962;8.342;2022-09-01T13:16:50;3.58;;;1.40;;
33824;SDS011;20127;48.962;8.342;2022-09-01T13:19:52;2.95;;;1.48;;
33824;SDS011;20127;48.962;8.342;2022-09-01T13:22:54;2.72;;;1.88;;
33824;SDS011;20127;48.962;8.342;2022-09-01T13:25:56;1.20;;;1.00;;
33824;SDS011;20127;48.962;8.342;2022-09-01T13:28:58;4.60;;;1.52;;
33824;SDS011;20127;48.962;8.342;2022-09-01T13:32:01;4.15;;;1.60;;
33824;SDS011;20127;48.962;8.342;2022-09-01T13:35:03;3.40;;;1.48;;
33824;SDS011;20127;48.962;8.342;2022-09-01T13:38:06;1.92;;;1.17;;
33824;SDS011;20127;48.962;8.342;2022-09-01T13:41:08;2.15;;;1.10;;
33824;SDS011;20127;48.962;8.342;2022-09-01T13:44:10;2.05;;;0.98;;
33824;SDS011;20127;48.962;8.342;2022-09-01T13:47:13;2.25;;;1.35;;
33824;SDS011;20127;48.962;8.342;2022-09-01T13:50:16;3.50;;;1.30;;
33824;SDS011;20127;48.962;8.342;2022-09-01T13:53:19;2.88;;;1.20;;
33824;SDS011;20127;48.962;8.342;2022-09-01T13:56:21;2.63;;;1.40;;
33824;SDS011;20127;48.962;8.342;2022-09-01T13:59:23;2.05;;;1.10;;
33824;SDS011;20127;48.962;8.342;2022-09-01T14:02:26;3.38;;;1.00;;
33824;SDS011;20127;48.962;8.342;2022-09-01T14:05:30;2.10;;;1.13;;
33824;SDS011;20127;48.962;8.342;2022-09-01T14:08:33;1.48;;;0.80;;
33824;SDS011;20127;48.962;8.342;2022-09-01T14:11:35;2.10;;;1.02;;
33824;SDS011;20127;48.962;8.342;2022-09-01T14:14:37;1.40;;;1.10;;
33824;SDS011;20127;48.962;8.342;2022-09-01T14:17:40;2.53;;;0.98;;
33824;SDS011;20127;48.962;8.342;2022-09-01T14:20:44;2.42;;;1.13;;
33824;SDS011;20127;48.962;8.342;2022-09-01T14:23:47;3.10;;;1.58;;
33824;SDS011;20127;48.962;8.342;2022-09-01T14:26:49;2.47;;;1.17;;
33824;SDS011;20127;48.962;8.342;2022-09-01T14:29:50;1.70;;;1.10;;
33824;SDS011;20127;48.962;8.342;2022-09-01T14:32:54;0.90;;;0.73;;
33824;SDS011;20127;48.962;8.342;2022-09-01T14:35:57;2.35;;;1.05;;
33824;SDS011;20127;48.962;8.342;2022-09-01T14:38:59;1.45;;;1.20;;
33824;SDS011;20127;48.962;8.342;2022-09-01T14:42:01;1.63;;;0.80;;
33824;SDS011;20127;48.962;8.342;2022-09-01T14:45:03;2.33;;;0.80;;
33824;SDS011;20127;48.962;8.342;2022-09-01T14:48:06;1.15;;;0.93;;
33824;SDS011;20127;48.962;8.342;2022-09-01T14:51:08;0.90;;;0.60;;
33824;SDS011;20127;48.962;8.342;2022-09-01T14:54:18;1.02;;;0.88;;
33824;SDS011;20127;48.962;8.342;2022-09-01T14:57:19;1.73;;;1.00;;
33824;SDS011;20127;48.962;8.342;2022-09-01T15:00:23;2.85;;;0.75;;
33824;SDS011;20127;48.962;8.342;2022-09-01T15:03:26;1.60;;;0.88;;
33824;SDS011;20127;48.962;8.342;2022-09-01T15:06:28;1.33;;;0.60;;
33824;SDS011;20127;48.962;8.342;2022-09-01T15:09:30;1.23;;;0.90;;
33824;SDS011;20127;48.962;8.342;2022-09-01T15:12:32;1.40;;;0.90;;
33824;SDS011;20127;48.962;8.342;2022-09-01T15:15:34;5.25;;;0.90;;
33824;SDS011;20127;48.962;8.342;2022-09-01T15:18:39;1.17;;;1.00;;
33824;SDS011;20127;48.962;8.342;2022-09-01T15:21:41;3.10;;;1.10;;
33824;SDS011;20127;48.962;8.342;2022-09-01T15:24:45;2.60;;;1.38;;
33824;SDS011;20127;48.962;8.342;2022-09-01T15:27:47;1.33;;;0.90;;
33824;SDS011;20127;48.962;8.342;2022-09-01T15:30:48;1.58;;;0.75;;
33824;SDS011;20127;48.962;8.342;2022-09-01T15:33:53;1.55;;;0.90;;
33824;SDS011;20127;48.962;8.342;2022-09-01T15:36:55;2.63;;;1.10;;
33824;SDS011;20127;48.962;8.342;2022-09-01T15:39:57;2.00;;;1.05;;
33824;SDS011;20127;48.962;8.342;2022-09-01T15:42:59;1.30;;;0.93;;
33824;SDS011;20127;48.962;8.342;2022-09-01T15:46:01;4.75;;;1.40;;
33824;SDS011;20127;48.962;8.342;2022-09-01T15:49:06;1.50;;;0.93;;
33824;SDS011;20127;48.962;8.342;2022-09-01T15:52:09;5.18;;;1.42;;
33824;SDS011;20127;48.962;8.342;2022-09-01T15:55:11;1.10;;;0.98;;
33824;SDS011;20127;48.962;8.342;2022-09-01T15:58:14;2.78;;;1.33;;
33824;SDS011;20127;48.962;8.342;2022-09-01T16:01:17;3.78;;;1.27;;
33824;SDS011;20127;48.962;8.342;2022-09-01T16:04:21;2.28;;;0.98;;
33824;SDS011;20127;48.962;8.342;2022-09-01T16:07:23;4.78;;;1.27;;
33824;SDS011;20127;48.962;8.342;2022-09-01T16:10:25;2.00;;;1.38;;
33824;SDS011;20127;48.962;8.342;2022-09-01T16:13:28;1.75;;;1.38;;
33824;SDS011;20127;48.962;8.342;2022-09-01T16:16:35;1.60;;;1.00;;
33824;SDS011;20127;48.962;8.342;2022-09-01T16:19:47;3.80;;;1.48;;
33824;SDS011;20127;48.962;8.342;2022-09-01T16:22:55;2.38;;;1.38;;
33824;SDS011;20127;48.962;8.342;2022-09-01T16:26:03;1.50;;;1.17;;
33824;SDS011;20127;48.962;8.342;2022-09-01T16:29:06;2.72;;;1.02;;
33824;SDS011;20127;48.962;8.342;2022-09-01T16:32:12;1.63;;;0.90;;
33824;SDS011;20127;48.962;8.342;2022-09-01T16:35:16;3.10;;;0.98;;
33824;SDS011;20127;48.962;8.342;2022-09-01T16:38:21;1.40;;;1.05;;
33824;SDS011;20127;48.962;8.342;2022-09-01T16:41:35;1.85;;;0.98;;
33824;SDS011;20127;48.962;8.342;2022-09-01T16:44:50;2.10;;;1.13;;
33824;SDS011;20127;48.962;8.342;2022-09-01T16:47:59;1.58;;;1.10;;
33824;SDS011;20127;48.962;8.342;2022-09-01T16:51:11;1.73;;;1.17;;
33824;SDS011;20127;48.962;8.342;2022-09-01T16:54:18;3.28;;;1.33;;
33824;SDS011;20127;48.962;8.342;2022-09-01T16:57:30;3.28;;;1.38;;
33824;SDS011;20127;48.962;8.342;2022-09-01T17:00:41;2.47;;;1.38;;
33824;SDS011;20127;48.962;8.342;2022-09-01T17:03:55;2.65;;;1.25;;
33824;SDS011;20127;48.962;8.342;2022-09-01T17:07:25;1.83;;;1.23;;
33824;SDS011;20127;48.962;8.342;2022-09-01T17:10:33;3.33;;;2.15;;
33824;SDS011;20127;48.962;8.342;2022-09-01T17:13:40;6.35;;;1.48;;
33824;SDS011;20127;48.962;8.342;2022-09-01T17:16:46;2.08;;;1.42;;
33824;SDS011;20127;48.962;8.342;2022-09-01T17:19:53;3.38;;;1.60;;
33824;SDS011;20127;48.962;8.342;2022-09-01T17:22:57;3.22;;;1.20;;
33824;SDS011;20127;48.962;8.342;2022-09-01T17:26:00;1.48;;;1.00;;
33824;SDS011;20127;48.962;8.342;2022-09-01T17:29:07;1.83;;;1.30;;
33824;SDS011;20127;48.962;8.342;2022-09-01T17:32:18;1.60;;;1.27;;
33824;SDS011;20127;48.962;8.342;2022-09-01T17:35:31;1.98;;;1.27;;
33824;SDS011;20127;48.962;8.342;2022-09-01T17:38:42;1.58;;;1.15;;
33824;SDS011;20127;48.962;8.342;2022-09-01T17:41:53;1.73;;;0.95;;
33824;SDS011;20127;48.962;8.342;2022-09-01T17:44:58;2.15;;;1.02;;
33824;SDS011;20127;48.962;8.342;2022-09-01T17:48:13;1.27;;;1.00;;
33824;SDS011;20127;48.962;8.342;2022-09-01T17:51:21;3.00;;;1.27;;
33824;SDS011;20127;48.962;8.342;2022-09-01T17:54:32;4.47;;;1.30;;
33824;SDS011;20127;48.962;8.342;2022-09-01T17:57:41;1.95;;;1.33;;
33824;SDS011;20127;48.962;8.342;2022-09-01T18:00:49;2.15;;;1.63;;
33824;SDS011;20127;48.962;8.342;2022-09-01T18:04:08;5.13;;;2.15;;
33824;SDS011;20127;48.962;8.342;2022-09-01T18:10:51;7.18;;;3.08;;
33824;SDS011;20127;48.962;8.342;2022-09-01T18:13:58;3.25;;;2.15;;
33824;SDS011;20127;48.962;8.342;2022-09-01T18:17:06;4.47;;;2.07;;
33824;SDS011;20127;48.962;8.342;2022-09-01T18:20:16;6.00;;;1.98;;
33824;SDS011;20127;48.962;8.342;2022-09-01T18:23:21;3.90;;;2.25;;
33824;SDS011;20127;48.962;8.342;2022-09-01T18:26:26;5.30;;;1.98;;
33824;SDS011;20127;48.962;8.342;2022-09-01T18:29:31;5.57;;;1.85;;
33824;SDS011;20127;48.962;8.342;2022-09-01T18:32:34;2.75;;;1.67;;
33824;SDS011;20127;48.962;8.342;2022-09-01T18:35:42;1.90;;;1.42;;
33824;SDS011;20127;48.962;8.342;2022-09-01T18:38:50;4.15;;;1.88;;
33824;SDS011;20127;48.962;8.342;2022-09-01T18:45:07;1.95;;;1.40;;
33824;SDS011;20127;48.962;8.342;2022-09-01T18:48:21;3.42;;;1.98;;
33824;SDS011;20127;48.962;8.342;2022-09-01T18:51:38;4.53;;;1.80;;
33824;SDS011;20127;48.962;8.342;2022-09-01T18:54:48;7.05;;;1.98;;
33824;SDS011;20127;48.962;8.342;2022-09-01T18:58:00;5.55;;;1.83;;
33824;SDS011;20127;48.962;8.342;2022-09-01T19:04:09;4.15;;;1.92;;
33824;SDS011;20127;48.962;8.342;2022-09-01T19:07:21;4.60;;;1.83;;